Time,TemperatureF,DewpointF,PressureIn,WindDirection,WindDirectionDegrees,WindSpeedMPH,WindSpeedGustMPH,Humidity,HourlyPrecipIn,Conditions,Clouds,dailyrainin,SoftwareType,DateUTC
2013-05-21 00:03:00,72.0,70.0,30.04,SSE,152,3.0,12.0,93,0.02,,,2.97,,2013-05-21 04:03:00,
2013-05-21 00:13:00,72.0,70.0,30.04,SSE,152,3.0,12.0,93,0.02,,,2.97,,2013-05-21 04:13:00,
2013-05-21 00:23:00,72.0,70.0,30.03,SE,127,0.0,4.0,93,0.00,,,2.97,,2013-05-21 04:23:00,
2013-05-21 00:33:00,72.0,70.0,30.01,SE,127,0.0,1.0,93,0.00,,,2.97,,2013-05-21 04:33:00,
2013-05-21 00:42:00,72.0,70.0,30.01,SE,127,0.0,1.0,93,0.00,,,2.97,,2013-05-21 04:42:00,
2013-05-21 00:52:00,72.0,70.0,30.01,SE,127,1.0,3.0,93,0.01,,,2.98,,2013-05-21 04:52:00,
2013-05-21 01:02:00,73.0,71.0,30.01,SSE,159,3.0,9.0,94,0.01,,,2.98,,2013-05-21 05:02:00,
2013-05-21 01:12:00,72.0,70.0,30.01,SSE,157,3.0,8.0,93,0.01,,,2.98,,2013-05-21 05:12:00,
2013-05-21 01:22:00,72.0,70.0,30.01,SSE,157,3.0,8.0,93,0.01,,,2.98,,2013-05-21 05:22:00,
2013-05-21 01:32:00,72.0,70.0,30.01,South,178,5.0,10.0,93,0.01,,,2.98,,2013-05-21 05:32:00,
2013-05-21 01:42:00,72.0,70.0,30.00,South,183,0.0,1.0,93,0.00,,,2.98,,2013-05-21 05:42:00,
2013-05-21 01:51:00,72.0,70.0,30.00,South,183,0.0,1.0,93,0.00,,,2.98,,2013-05-21 05:51:00,
2013-05-21 02:02:00,71.0,69.0,29.99,SE,132,0.0,6.0,92,0.00,,,2.98,,2013-05-21 06:02:00,
2013-05-21 02:12:00,71.0,69.0,29.99,SE,132,0.0,6.0,92,0.00,,,2.98,,2013-05-21 06:12:00,
2013-05-21 02:21:00,72.0,70.0,29.97,SSE,155,0.0,6.0,93,0.00,,,2.98,,2013-05-21 06:21:00,
2013-05-21 02:32:00,72.0,70.0,29.96,SE,129,0.0,4.0,93,0.00,,,2.98,,2013-05-21 06:32:00,
2013-05-21 02:42:00,72.0,70.0,29.96,SE,129,0.0,4.0,93,0.00,,,2.98,,2013-05-21 06:42:00,
2013-05-21 02:52:00,72.0,70.0,29.96,SE,129,1.0,3.0,92,0.00,,,2.98,,2013-05-21 06:52:00,
2013-05-21 03:01:00,72.0,70.0,29.96,SE,129,0.0,3.0,92,0.00,,,2.98,,2013-05-21 07:01:00,
2013-05-21 03:11:00,72.0,70.0,29.96,SE,129,0.0,3.0,92,0.00,,,2.98,,2013-05-21 07:11:00,
2013-05-21 03:22:00,72.0,70.0,29.95,ESE,117,1.0,5.0,92,0.00,,,2.98,,2013-05-21 07:22:00,
2013-05-21 03:32:00,72.0,69.0,29.94,SSE,148,0.0,8.0,91,0.00,,,2.98,,2013-05-21 07:32:00,
2013-05-21 03:42:00,72.0,69.0,29.94,SSE,148,0.0,8.0,91,0.00,,,2.98,,2013-05-21 07:42:00,
2013-05-21 03:52:00,73.0,70.0,29.94,East,96,1.0,10.0,91,0.00,,,2.98,,2013-05-21 07:52:00,
2013-05-21 04:02:00,74.0,71.0,29.94,NE,40,1.0,9.0,90,0.00,,,2.98,,2013-05-21 08:02:00,
2013-05-21 04:11:00,74.0,71.0,29.93,ESE,118,4.0,10.0,90,0.00,,,2.98,,2013-05-21 08:11:00,
2013-05-21 04:21:00,74.0,71.0,29.93,ESE,118,4.0,10.0,90,0.00,,,2.98,,2013-05-21 08:21:00,
2013-05-21 04:31:00,74.0,71.0,29.93,ESE,105,3.0,9.0,89,0.00,,,2.98,,2013-05-21 08:31:00,
2013-05-21 04:42:00,73.0,69.0,29.93,SE,132,4.0,14.0,88,0.00,,,2.98,,2013-05-21 08:42:00,
2013-05-21 04:52:00,73.0,69.0,29.93,SE,132,4.0,14.0,88,0.00,,,2.98,,2013-05-21 08:52:00,
2013-05-21 05:01:00,72.0,68.0,29.93,SSE,150,3.0,11.0,87,0.00,,,2.98,,2013-05-21 09:01:00,
2013-05-21 05:11:00,72.0,68.0,29.93,SSE,150,3.0,11.0,87,0.00,,,2.98,,2013-05-21 09:11:00,
2013-05-21 05:21:00,72.0,68.0,29.94,ESE,116,6.0,12.0,87,0.00,,,2.98,,2013-05-21 09:21:00,
2013-05-21 05:33:00,73.0,70.0,29.94,SSE,157,2.0,11.0,89,0.00,,,2.98,,2013-05-21 09:33:00,
2013-05-21 05:42:00,73.0,70.0,29.94,SSE,157,2.0,11.0,89,0.00,,,2.98,,2013-05-21 09:42:00,
2013-05-21 05:52:00,73.0,70.0,29.94,ESE,108,2.0,8.0,89,0.00,,,2.98,,2013-05-21 09:52:00,
2013-05-21 06:03:00,73.0,70.0,29.94,SSE,148,1.0,9.0,89,0.00,,,2.98,,2013-05-21 10:03:00,
2013-05-21 06:12:00,73.0,70.0,29.94,SSE,148,1.0,9.0,89,0.00,,,2.98,,2013-05-21 10:12:00,
2013-05-21 06:22:00,73.0,70.0,29.94,SSE,153,3.0,8.0,90,0.00,,,2.98,,2013-05-21 10:22:00,
2013-05-21 06:32:00,74.0,71.0,29.94,NE,54,0.0,8.0,90,0.00,,,2.98,,2013-05-21 10:32:00,
2013-05-21 06:42:00,74.0,71.0,29.94,NE,54,0.0,8.0,90,0.00,,,2.98,,2013-05-21 10:42:00,
2013-05-21 06:52:00,74.0,71.0,29.94,SE,126,0.0,7.0,90,0.00,,,2.98,,2013-05-21 10:52:00,
2013-05-21 07:02:00,74.0,71.0,29.95,ESE,117,1.0,7.0,90,0.00,,,2.98,,2013-05-21 11:02:00,
2013-05-21 07:12:00,74.0,71.0,29.95,ESE,117,1.0,7.0,90,0.00,,,2.98,,2013-05-21 11:12:00,
2013-05-21 07:21:00,74.0,71.0,29.95,SSE,166,0.0,7.0,89,0.00,,,2.98,,2013-05-21 11:21:00,
2013-05-21 07:32:00,74.0,71.0,29.96,ESE,102,1.0,7.0,89,0.00,,,2.98,,2013-05-21 11:32:00,
2013-05-21 07:42:00,74.0,71.0,29.96,ESE,102,1.0,7.0,89,0.00,,,2.98,,2013-05-21 11:42:00,
2013-05-21 07:51:00,75.0,72.0,29.97,ESE,121,2.0,7.0,89,0.00,,,2.98,,2013-05-21 11:51:00,
2013-05-21 08:01:00,76.0,72.0,29.98,SSE,147,1.0,7.0,88,0.00,,,2.98,,2013-05-21 12:01:00,
2013-05-21 08:11:00,76.0,72.0,29.98,SSE,147,1.0,7.0,88,0.00,,,2.98,,2013-05-21 12:11:00,
2013-05-21 08:21:00,76.0,72.0,29.98,ESE,113,0.0,2.0,88,0.00,,,2.98,,2013-05-21 12:21:00,
2013-05-21 08:32:00,76.0,72.0,29.98,SSE,150,4.0,13.0,87,0.08,,,3.06,,2013-05-21 12:32:00,
2013-05-21 08:42:00,76.0,72.0,29.98,SSE,150,4.0,13.0,87,0.08,,,3.06,,2013-05-21 12:42:00,
2013-05-21 08:51:00,74.0,70.0,29.99,SSE,155,0.0,8.0,87,0.41,,,3.39,,2013-05-21 12:51:00,
2013-05-21 09:01:00,73.0,70.0,29.99,SE,131,0.0,6.0,90,0.52,,,3.50,,2013-05-21 13:01:00,
2013-05-21 09:12:00,73.0,70.0,29.99,SE,131,0.0,6.0,90,0.52,,,3.50,,2013-05-21 13:12:00,
2013-05-21 09:22:00,73.0,70.0,29.99,NNW,345,0.0,4.0,91,0.52,,,3.44,,2013-05-21 13:22:00,
2013-05-21 09:32:00,73.0,71.0,29.99,NNW,348,1.0,4.0,92,0.42,,,3.44,,2013-05-21 13:32:00,
2013-05-21 09:42:00,73.0,71.0,29.98,NNW,348,0.0,4.0,92,0.10,,,3.44,,2013-05-21 13:42:00,
2013-05-21 09:52:00,73.0,71.0,29.98,NNW,348,0.0,4.0,92,0.10,,,3.44,,2013-05-21 13:52:00,
2013-05-21 10:02:00,73.0,71.0,29.98,NNW,348,0.0,0.0,92,0.00,,,3.44,,2013-05-21 14:02:00,
2013-05-21 10:11:00,73.0,71.0,29.98,NNW,348,0.0,0.0,92,0.00,,,3.44,,2013-05-21 14:11:00,
2013-05-21 10:21:00,74.0,72.0,29.99,NNW,348,0.0,0.0,92,0.00,,,3.14,,2013-05-21 14:21:00,
2013-05-21 10:32:00,76.0,73.0,29.99,SSE,161,3.0,6.0,89,0.00,,,3.14,,2013-05-21 14:32:00,
2013-05-21 10:42:00,76.0,72.0,29.99,South,177,3.0,6.0,86,0.00,,,3.14,,2013-05-21 14:42:00,
2013-05-21 10:51:00,76.0,72.0,29.99,South,177,3.0,6.0,86,0.00,,,3.14,,2013-05-21 14:51:00,
2013-05-21 11:01:00,77.0,72.0,30.00,SSE,158,0.0,5.0,84,0.00,,,3.14,,2013-05-21 15:01:00,
2013-05-21 11:11:00,77.0,72.0,30.00,SSE,158,1.0,4.0,84,0.00,,,3.07,,2013-05-21 15:11:00,
2013-05-21 11:21:00,77.0,72.0,30.00,SSE,158,1.0,4.0,84,0.00,,,3.07,,2013-05-21 15:21:00,
2013-05-21 11:33:00,78.0,72.0,30.00,SE,141,1.0,7.0,83,0.00,,,3.07,,2013-05-21 15:33:00,
2013-05-21 11:42:00,79.0,73.0,30.01,SE,129,1.0,4.0,81,0.00,,,3.07,,2013-05-21 15:42:00,
2013-05-21 11:52:00,79.0,73.0,30.01,SE,129,1.0,4.0,81,0.00,,,3.07,,2013-05-21 15:52:00,
2013-05-21 12:03:00,77.0,71.0,30.01,ENE,61,0.0,7.0,81,0.00,,,3.07,,2013-05-21 16:03:00,
2013-05-21 12:13:00,74.0,69.0,30.01,SE,142,2.0,6.0,84,0.00,,,2.99,,2013-05-21 16:13:00,
2013-05-21 12:23:00,74.0,69.0,30.01,SE,142,2.0,6.0,84,0.00,,,2.99,,2013-05-21 16:23:00,
2013-05-21 12:32:00,74.0,70.0,30.01,NNE,27,1.0,8.0,87,0.00,,,2.99,,2013-05-21 16:32:00,
2013-05-21 12:42:00,76.0,70.0,30.00,NNE,27,2.0,7.0,82,0.00,,,2.99,,2013-05-21 16:42:00,
2013-05-21 12:52:00,76.0,70.0,30.00,NNE,27,2.0,7.0,82,0.00,,,2.99,,2013-05-21 16:52:00,
2013-05-21 13:02:00,77.0,70.0,30.00,SSE,157,1.0,4.0,79,0.00,,,2.99,,2013-05-21 17:02:00,
2013-05-21 13:12:00,76.0,69.0,30.00,SSE,153,0.0,4.0,80,0.00,,,2.75,,2013-05-21 17:12:00,
2013-05-21 13:23:00,76.0,69.0,30.00,SSE,153,0.0,4.0,80,0.00,,,2.75,,2013-05-21 17:23:00,
2013-05-21 13:33:00,75.0,69.0,30.00,SE,127,3.0,9.0,83,0.15,,,2.90,,2013-05-21 17:33:00,
2013-05-21 13:43:00,72.0,68.0,29.99,SE,134,2.0,8.0,88,0.28,,,3.04,,2013-05-21 17:43:00,
2013-05-21 13:52:00,72.0,68.0,29.99,SE,134,2.0,8.0,88,0.28,,,3.04,,2013-05-21 17:52:00,
2013-05-21 14:02:00,75.0,71.0,29.98,North,11,0.0,3.0,88,0.28,,,3.04,,2013-05-21 18:02:00,
2013-05-21 14:12:00,78.0,72.0,29.96,NE,37,0.0,3.0,82,0.28,,,2.89,,2013-05-21 18:12:00,
2013-05-21 14:22:00,78.0,72.0,29.96,NE,37,0.0,3.0,82,0.28,,,2.89,,2013-05-21 18:22:00,
2013-05-21 14:32:00,79.0,72.0,29.95,ESE,115,0.0,3.0,79,0.10,,,2.89,,2013-05-21 18:32:00,
2013-05-21 14:42:00,80.0,71.0,29.96,SE,142,1.0,7.0,73,0.00,,,2.89,,2013-05-21 18:42:00,
2013-05-21 14:51:00,80.0,71.0,29.96,SE,142,1.0,7.0,73,0.00,,,2.89,,2013-05-21 18:51:00,
2013-05-21 15:01:00,79.0,70.0,29.96,ESE,107,1.0,7.0,75,0.00,,,2.89,,2013-05-21 19:01:00,
2013-05-21 15:11:00,78.0,71.0,29.95,ESE,119,0.0,6.0,78,0.00,,,2.58,,2013-05-21 19:11:00,
2013-05-21 15:21:00,78.0,71.0,29.95,ESE,119,0.0,6.0,78,0.00,,,2.58,,2013-05-21 19:21:00,
2013-05-21 15:32:00,78.0,72.0,29.94,ESE,115,3.0,11.0,81,0.00,,,2.58,,2013-05-21 19:32:00,
2013-05-21 15:42:00,78.0,72.0,29.93,ESE,113,2.0,7.0,82,0.00,,,2.58,,2013-05-21 19:42:00,
2013-05-21 15:52:00,78.0,72.0,29.93,ESE,113,2.0,7.0,82,0.00,,,2.58,,2013-05-21 19:52:00,
2013-05-21 16:03:00,78.0,71.0,29.92,ESE,122,1.0,10.0,80,0.00,,,2.58,,2013-05-21 20:03:00,
2013-05-21 16:11:00,78.0,71.0,29.92,ESE,122,1.0,10.0,80,0.00,,,2.58,,2013-05-21 20:11:00,
2013-05-21 16:22:00,79.0,72.0,29.93,ESE,121,2.0,10.0,80,0.00,,,2.48,,2013-05-21 20:22:00,
2013-05-21 16:32:00,79.0,73.0,29.93,SE,128,3.0,10.0,82,0.00,,,2.48,,2013-05-21 20:32:00,
2013-05-21 16:42:00,79.0,73.0,29.92,SE,128,4.0,10.0,81,0.00,,,2.48,,2013-05-21 20:42:00,
2013-05-21 16:52:00,79.0,73.0,29.92,SE,128,4.0,10.0,81,0.00,,,2.48,,2013-05-21 20:52:00,
2013-05-21 17:02:00,79.0,73.0,29.93,ESE,118,1.0,10.0,81,0.00,,,2.48,,2013-05-21 21:02:00,
2013-05-21 17:11:00,79.0,73.0,29.93,ESE,118,1.0,10.0,81,0.00,,,2.48,,2013-05-21 21:11:00,
2013-05-21 17:21:00,79.0,72.0,29.93,ESE,105,4.0,10.0,79,0.00,,,2.47,,2013-05-21 21:21:00,
2013-05-21 17:33:00,79.0,72.0,29.92,SE,124,4.0,10.0,80,0.00,,,2.47,,2013-05-21 21:33:00,
2013-05-21 17:43:00,78.0,72.0,29.92,ESE,120,4.0,9.0,81,0.00,,,2.47,,2013-05-21 21:43:00,
2013-05-21 17:53:00,78.0,72.0,29.92,ESE,120,4.0,9.0,81,0.00,,,2.47,,2013-05-21 21:53:00,
2013-05-21 18:02:00,78.0,71.0,29.91,ESE,103,2.0,9.0,79,0.00,,,2.47,,2013-05-21 22:02:00,
2013-05-21 18:12:00,78.0,71.0,29.91,ESE,103,2.0,9.0,79,0.00,,,2.47,,2013-05-21 22:12:00,
2013-05-21 18:22:00,78.0,71.0,29.91,SE,130,3.0,10.0,79,0.00,,,2.44,,2013-05-21 22:22:00,
2013-05-21 18:33:00,78.0,71.0,29.91,ESE,112,1.0,10.0,80,0.00,,,2.44,,2013-05-21 22:33:00,
2013-05-21 18:42:00,78.0,71.0,29.92,SE,126,4.0,8.0,80,0.00,,,2.44,,2013-05-21 22:42:00,
2013-05-21 18:52:00,78.0,71.0,29.92,SE,126,4.0,8.0,80,0.00,,,2.44,,2013-05-21 22:52:00,
2013-05-21 19:02:00,78.0,71.0,29.93,ESE,105,4.0,9.0,80,0.00,,,2.44,,2013-05-21 23:02:00,
2013-05-21 19:12:00,78.0,71.0,29.93,ESE,105,4.0,9.0,80,0.00,,,2.44,,2013-05-21 23:12:00,
2013-05-21 19:22:00,77.0,70.0,29.93,SE,126,2.0,8.0,80,0.00,,,2.43,,2013-05-21 23:22:00,
2013-05-21 19:32:00,77.0,70.0,29.94,ESE,115,2.0,8.0,79,0.00,,,2.43,,2013-05-21 23:32:00,
2013-05-21 19:42:00,77.0,70.0,29.95,SE,124,2.0,5.0,79,0.00,,,2.43,,2013-05-21 23:42:00,
2013-05-21 19:52:00,77.0,70.0,29.95,SE,124,2.0,5.0,79,0.00,,,2.43,,2013-05-21 23:52:00,
2013-05-21 20:01:00,77.0,70.0,29.95,SE,138,1.0,6.0,80,0.00,,,2.43,,2013-05-22 00:01:00,
2013-05-21 20:11:00,77.0,71.0,29.94,SE,131,3.0,8.0,81,0.00,,,2.43,,2013-05-22 00:11:00,
2013-05-21 20:21:00,77.0,71.0,29.94,SE,131,3.0,8.0,81,0.00,,,2.43,,2013-05-22 00:21:00,
2013-05-21 20:32:00,77.0,71.0,29.95,ESE,115,3.0,9.0,82,0.00,,,2.43,,2013-05-22 00:32:00,
2013-05-21 20:42:00,77.0,71.0,29.94,SSE,148,1.0,11.0,82,0.00,,,2.43,,2013-05-22 00:42:00,
2013-05-21 20:51:00,77.0,71.0,29.94,SSE,148,1.0,11.0,82,0.00,,,2.43,,2013-05-22 00:51:00,
2013-05-21 21:01:00,77.0,71.0,29.94,ESE,117,1.0,11.0,83,0.00,,,2.43,,2013-05-22 01:01:00,
2013-05-21 21:11:00,77.0,71.0,29.94,ESE,117,1.0,11.0,83,0.00,,,2.43,,2013-05-22 01:11:00,
2013-05-21 21:21:00,77.0,71.0,29.95,ESE,122,2.0,6.0,83,0.00,,,2.29,,2013-05-22 01:21:00,
2013-05-21 21:32:00,76.0,70.0,29.95,SE,128,0.0,6.0,83,0.00,,,2.29,,2013-05-22 01:32:00,
2013-05-21 21:42:00,76.0,70.0,29.94,SE,125,2.0,7.0,83,0.00,,,2.29,,2013-05-22 01:42:00,
2013-05-21 21:52:00,76.0,70.0,29.94,SE,125,2.0,7.0,83,0.00,,,2.29,,2013-05-22 01:52:00,
2013-05-21 22:02:00,76.0,71.0,29.93,ESE,110,1.0,7.0,84,0.00,,,2.29,,2013-05-22 02:02:00,
2013-05-21 22:12:00,76.0,71.0,29.93,ESE,114,2.0,8.0,84,0.00,,,1.06,,2013-05-22 02:12:00,
2013-05-21 22:21:00,76.0,71.0,29.93,ESE,114,2.0,8.0,84,0.00,,,1.06,,2013-05-22 02:21:00,
2013-05-21 22:32:00,76.0,70.0,29.93,ESE,123,3.0,9.0,82,0.00,,,1.06,,2013-05-22 02:32:00,
2013-05-21 22:42:00,76.0,70.0,29.93,East,100,2.0,9.0,82,0.00,,,1.06,,2013-05-22 02:42:00,
2013-05-21 22:51:00,76.0,70.0,29.93,East,100,2.0,9.0,82,0.00,,,1.06,,2013-05-22 02:51:00,
2013-05-21 23:01:00,76.0,70.0,29.94,SE,136,2.0,5.0,83,0.00,,,1.06,,2013-05-22 03:01:00,
2013-05-21 23:11:00,76.0,70.0,29.94,ESE,108,3.0,9.0,83,0.00,,,0.83,,2013-05-22 03:11:00,
2013-05-21 23:21:00,76.0,70.0,29.94,ESE,108,3.0,9.0,83,0.00,,,0.83,,2013-05-22 03:21:00,
2013-05-21 23:33:00,76.0,71.0,29.94,SE,132,3.0,7.0,84,0.00,,,0.83,,2013-05-22 03:33:00,
2013-05-21 23:43:00,76.0,71.0,29.94,ESE,117,0.0,6.0,84,0.00,,,0.83,,2013-05-22 03:43:00,
2013-05-21 23:53:00,76.0,71.0,29.94,ESE,117,0.0,6.0,84,0.00,,,0.83,,2013-05-22 03:53:00,